createdAt,value
2023-03-24T00:00:17.701Z,13.90
2023-03-24T00:02:21.303Z,13.90
2023-03-24T00:04:25.823Z,13.90
2023-03-24T00:06:34.397Z,13.87
2023-03-24T00:08:38.434Z,13.90
2023-03-24T00:10:42.616Z,13.86
2023-03-24T00:12:46.542Z,13.82
2023-03-24T00:14:50.206Z,13.74
2023-03-24T00:16:54.674Z,13.71
2023-03-24T00:18:58.220Z,13.68
2023-03-24T00:21:06.733Z,13.68
2023-03-24T00:23:09.635Z,13.67
2023-03-24T00:25:13.116Z,13.64
2023-03-24T00:27:17.541Z,13.68
2023-03-24T00:29:21.158Z,13.69
2023-03-24T00:31:25.310Z,13.69
2023-03-24T00:33:28.226Z,13.71
2023-03-24T00:35:31.187Z,13.76
2023-03-24T00:37:37.415Z,13.75
2023-03-24T00:39:43.498Z,13.73
2023-03-24T00:41:47.597Z,13.75
2023-03-24T00:43:52.519Z,13.71
2023-03-24T00:46:01.198Z,13.70
2023-03-24T00:48:05.293Z,13.64
2023-03-24T00:50:12.226Z,13.66
2023-03-24T00:52:18.095Z,13.63
2023-03-24T00:54:31.012Z,13.65
2023-03-24T00:56:35.859Z,13.63
2023-03-24T00:58:39.087Z,13.64
2023-03-24T01:00:42.361Z,13.63
2023-03-24T01:02:46.318Z,13.63
2023-03-24T01:04:54.271Z,13.59
2023-03-24T01:06:58.318Z,13.55
2023-03-24T01:09:03.006Z,13.57
2023-03-24T01:11:07.867Z,13.55
2023-03-24T01:13:11.421Z,13.58
2023-03-24T01:15:17.224Z,13.69
2023-03-24T01:17:22.234Z,13.69
2023-03-24T01:19:25.409Z,13.66
2023-03-24T01:21:28.505Z,13.70
2023-03-24T01:23:31.683Z,13.72
2023-03-24T01:25:38.130Z,13.78
2023-03-24T01:27:42.374Z,13.82
2023-03-24T01:29:45.652Z,13.81
2023-03-24T01:31:48.695Z,13.76
2023-03-24T01:33:51.735Z,13.73
2023-03-24T01:35:55.783Z,13.65
2023-03-24T01:37:59.570Z,13.58
2023-03-24T01:40:07.351Z,13.64
2023-03-24T01:42:18.400Z,13.67
2023-03-24T01:44:31.888Z,13.72
2023-03-24T01:46:34.950Z,13.73
2023-03-24T01:48:41.694Z,13.76
2023-03-24T01:50:49.633Z,13.78
2023-03-24T01:52:52.670Z,13.72
2023-03-24T01:54:59.914Z,13.76
2023-03-24T01:57:10.427Z,13.77
2023-03-24T01:59:19.718Z,13.82
2023-03-24T02:01:40.728Z,13.82
2023-03-24T02:04:13.238Z,13.83
2023-03-24T02:06:19.005Z,13.82
2023-03-24T02:08:33.846Z,13.84
2023-03-24T02:10:38.553Z,13.84
2023-03-24T02:12:42.878Z,13.84
2023-03-24T02:14:46.545Z,13.78
2023-03-24T02:17:09.591Z,13.73
2023-03-24T02:19:47.638Z,13.76
2023-03-24T02:22:15.398Z,13.76
2023-03-24T02:25:02.511Z,13.78
2023-03-24T02:27:21.440Z,13.79
2023-03-24T02:30:06.554Z,13.78
2023-03-24T02:32:36.654Z,13.79
2023-03-24T02:35:18.401Z,13.89
2023-03-24T02:37:56.112Z,13.84
2023-03-24T02:40:16.301Z,13.81
2023-03-24T02:42:29.455Z,13.79
2023-03-24T02:44:40.757Z,13.81
2023-03-24T02:46:48.033Z,13.78
2023-03-24T02:49:07.571Z,13.82
2023-03-24T02:51:16.953Z,13.82
2023-03-24T02:53:29.387Z,13.86
2023-03-24T02:56:07.602Z,13.91
2023-03-24T02:58:18.287Z,13.92
2023-03-24T03:00:30.746Z,13.89
2023-03-24T03:02:40.911Z,13.91
2023-03-24T03:04:50.017Z,13.95
2023-03-24T03:06:58.701Z,13.93
2023-03-24T03:09:07.561Z,13.89
2023-03-24T03:11:16.181Z,13.96
2023-03-24T03:13:24.712Z,13.95
2023-03-24T03:15:33.543Z,13.94
2023-03-24T03:17:39.985Z,14.00
2023-03-24T03:19:47.651Z,14.03
2023-03-24T03:21:51.598Z,14.04
2023-03-24T03:23:59.133Z,14.05
2023-03-24T03:26:05.972Z,14.04
2023-03-24T03:28:17.867Z,14.06
2023-03-24T03:30:25.975Z,14.06
2023-03-24T03:32:31.978Z,14.09
2023-03-24T03:34:41.649Z,14.10
2023-03-24T03:36:50.039Z,14.08
2023-03-24T03:38:57.731Z,14.13
2023-03-24T03:41:03.819Z,14.15
2023-03-24T03:43:12.550Z,14.08
2023-03-24T03:45:16.090Z,14.12
2023-03-24T03:47:21.285Z,14.17
2023-03-24T03:49:25.752Z,14.25
2023-03-24T03:51:29.989Z,14.32
2023-03-24T03:53:40.450Z,14.32
2023-03-24T03:55:44.271Z,14.30
2023-03-24T03:57:47.722Z,14.42
2023-03-24T04:00:11.906Z,14.46
2023-03-24T04:02:35.443Z,14.42
2023-03-24T04:05:03.248Z,14.40
2023-03-24T04:07:22.644Z,14.37
2023-03-24T04:09:51.555Z,14.39
2023-03-24T04:12:15.328Z,14.43
2023-03-24T04:14:37.263Z,14.45
2023-03-24T04:17:12.486Z,14.43
2023-03-24T04:19:34.271Z,14.48
2023-03-24T04:21:55.025Z,14.56
2023-03-24T04:24:06.718Z,14.48
2023-03-24T04:26:18.056Z,14.49
2023-03-24T04:28:27.385Z,14.48
2023-03-24T04:30:38.218Z,14.51
2023-03-24T04:32:48.241Z,14.50
2023-03-24T04:35:01.629Z,14.48
2023-03-24T04:37:37.705Z,14.48
2023-03-24T04:39:50.539Z,14.53
2023-03-24T04:41:55.219Z,14.60
2023-03-24T04:44:02.005Z,14.53
2023-03-24T04:46:09.466Z,14.58
2023-03-24T04:48:34.080Z,14.46
2023-03-24T04:51:16.447Z,14.53
2023-03-24T04:53:33.389Z,14.53
2023-03-24T04:55:54.734Z,14.49
2023-03-24T04:58:13.866Z,14.44
2023-03-24T05:00:18.388Z,14.47
2023-03-24T05:02:21.913Z,14.46
2023-03-24T05:04:42.513Z,14.44
2023-03-24T05:06:53.304Z,14.45
2023-03-24T05:09:00.294Z,14.40
2023-03-24T05:11:06.396Z,14.38
2023-03-24T05:13:10.728Z,14.38
2023-03-24T05:15:21.669Z,14.37
2023-03-24T05:17:30.183Z,14.34
2023-03-24T05:19:33.931Z,14.36
2023-03-24T05:21:38.424Z,14.23
2023-03-24T05:23:42.101Z,14.23
2023-03-24T05:25:47.004Z,14.22
2023-03-24T05:27:51.322Z,14.16
2023-03-24T05:29:57.493Z,14.22
2023-03-24T05:32:03.020Z,14.28
2023-03-24T05:34:07.113Z,14.27
2023-03-24T05:36:18.464Z,14.44
2023-03-24T05:38:31.436Z,14.35
2023-03-24T05:40:34.278Z,14.27
2023-03-24T05:42:49.020Z,14.22
2023-03-24T05:44:51.973Z,14.23
2023-03-24T05:47:01.736Z,14.16
2023-03-24T05:49:04.838Z,14.14
2023-03-24T05:51:10.935Z,14.20
2023-03-24T05:53:14.219Z,14.14
2023-03-24T05:55:47.810Z,14.09
2023-03-24T05:58:15.783Z,14.06
2023-03-24T06:00:26.573Z,14.15
2023-03-24T06:02:36.084Z,14.24
2023-03-24T06:04:46.323Z,14.24
2023-03-24T06:06:52.249Z,14.28
2023-03-24T06:09:02.323Z,14.25
2023-03-24T06:11:07.321Z,14.25
2023-03-24T06:13:20.403Z,14.25
2023-03-24T06:15:27.463Z,14.34
2023-03-24T06:17:34.008Z,14.27
2023-03-24T06:19:48.630Z,14.19
2023-03-24T06:22:03.587Z,14.13
2023-03-24T06:24:14.827Z,14.12
2023-03-24T06:26:19.063Z,14.20
2023-03-24T06:28:30.416Z,14.26
2023-03-24T06:30:37.037Z,14.25
2023-03-24T06:32:40.028Z,14.20
2023-03-24T06:34:43.010Z,14.18
2023-03-24T06:36:57.000Z,14.10
2023-03-24T06:38:59.818Z,14.16
2023-03-24T06:41:04.754Z,14.18
2023-03-24T06:43:09.271Z,14.17
2023-03-24T06:45:14.711Z,14.18
2023-03-24T06:47:17.566Z,14.12
2023-03-24T06:49:20.902Z,14.14
2023-03-24T06:51:23.723Z,14.09
2023-03-24T06:53:27.013Z,14.06
2023-03-24T06:55:30.415Z,14.12
2023-03-24T06:57:33.873Z,14.14
2023-03-24T07:00:10.308Z,14.19
2023-03-24T07:02:24.237Z,14.20
2023-03-24T07:04:27.701Z,14.26
2023-03-24T07:07:00.829Z,14.31
2023-03-24T07:09:07.074Z,14.27
2023-03-24T07:11:10.294Z,14.37
2023-03-24T07:13:16.642Z,14.39
2023-03-24T07:15:21.044Z,14.38
2023-03-24T07:17:25.310Z,14.36
2023-03-24T07:19:57.487Z,14.37
2023-03-24T07:22:25.289Z,14.41
2023-03-24T07:24:46.723Z,14.32
2023-03-24T07:27:12.382Z,14.44
2023-03-24T07:29:15.849Z,14.42
2023-03-24T07:31:40.774Z,14.35
2023-03-24T07:33:46.273Z,14.28
2023-03-24T07:35:50.039Z,14.40
2023-03-24T07:37:53.487Z,14.42
2023-03-24T07:39:56.470Z,14.38
2023-03-24T07:42:00.359Z,14.38
2023-03-24T07:44:20.879Z,14.32
2023-03-24T07:46:27.426Z,14.33
2023-03-24T07:48:34.404Z,14.40
2023-03-24T07:50:37.252Z,14.35
2023-03-24T07:52:50.351Z,14.32
2023-03-24T07:54:56.251Z,14.28
2023-03-24T07:57:26.479Z,14.31
2023-03-24T07:59:29.554Z,14.38
2023-03-24T08:01:40.843Z,14.39
2023-03-24T08:03:49.153Z,14.37
2023-03-24T08:05:52.714Z,14.45
2023-03-24T08:08:09.317Z,14.37
2023-03-24T08:10:13.750Z,14.36
2023-03-24T08:12:20.305Z,14.44
2023-03-24T08:14:25.711Z,14.46
2023-03-24T08:16:29.031Z,14.39
2023-03-24T08:18:34.829Z,14.45
2023-03-24T08:20:39.004Z,14.42
2023-03-24T08:22:42.822Z,14.40
2023-03-24T08:24:45.861Z,14.32
2023-03-24T08:26:48.719Z,14.35
2023-03-24T08:28:51.921Z,14.37
2023-03-24T08:30:54.965Z,14.36
2023-03-24T08:33:00.349Z,14.35
2023-03-24T08:35:05.049Z,14.30
2023-03-24T08:37:09.435Z,14.32
2023-03-24T08:39:12.621Z,14.32
2023-03-24T08:41:16.783Z,14.37
2023-03-24T08:43:23.361Z,14.32
2023-03-24T08:45:30.472Z,14.20
2023-03-24T08:47:33.497Z,14.25
2023-03-24T08:49:36.375Z,14.19
2023-03-24T08:51:39.243Z,14.15
2023-03-24T08:53:43.785Z,14.30
2023-03-24T08:55:46.998Z,14.37
2023-03-24T08:57:50.883Z,14.33
2023-03-24T08:59:53.853Z,14.31
2023-03-24T09:01:56.887Z,14.35
2023-03-24T09:03:59.824Z,14.39
2023-03-24T09:06:02.739Z,14.49
2023-03-24T09:08:05.749Z,14.49
2023-03-24T09:10:11.569Z,14.54
2023-03-24T09:12:14.509Z,14.44
2023-03-24T09:14:17.373Z,14.52
2023-03-24T09:16:20.403Z,14.46
2023-03-24T09:18:23.458Z,14.42
2023-03-24T09:20:27.239Z,14.41
2023-03-24T09:22:30.332Z,14.49
2023-03-24T09:24:33.169Z,14.38
2023-03-24T09:26:37.401Z,14.29
2023-03-24T09:28:40.485Z,14.34
2023-03-24T09:30:43.946Z,14.32
2023-03-24T09:32:47.615Z,14.42
2023-03-24T09:34:50.519Z,14.45
2023-03-24T09:36:53.304Z,14.47
2023-03-24T09:38:56.179Z,14.42
2023-03-24T09:41:02.575Z,14.57
2023-03-24T09:43:13.417Z,14.59
2023-03-24T09:45:19.367Z,14.62
2023-03-24T09:47:29.428Z,14.58
2023-03-24T09:49:38.466Z,14.64
2023-03-24T09:51:44.572Z,14.63
2023-03-24T09:53:53.666Z,14.65
2023-03-24T09:55:56.862Z,14.70
2023-03-24T09:58:05.724Z,14.64
2023-03-24T10:00:21.616Z,14.60
2023-03-24T10:02:24.582Z,14.64
2023-03-24T10:04:32.201Z,14.53
2023-03-24T10:06:41.798Z,14.54
2023-03-24T10:08:47.702Z,14.41
2023-03-24T10:11:00.285Z,14.50
2023-03-24T10:13:08.677Z,14.41
2023-03-24T10:15:30.838Z,14.53
2023-03-24T10:17:49.245Z,14.58
2023-03-24T10:20:00.265Z,14.57
2023-03-24T10:22:13.284Z,14.52
2023-03-24T10:24:24.947Z,14.41
2023-03-24T10:26:36.567Z,14.35
2023-03-24T10:28:45.623Z,14.32
2023-03-24T10:30:52.650Z,14.45
2023-03-24T10:32:55.751Z,14.43
2023-03-24T10:35:07.563Z,14.39
2023-03-24T10:37:12.626Z,14.34
2023-03-24T10:39:22.495Z,14.31
2023-03-24T10:41:30.573Z,14.42
2023-03-24T10:43:33.660Z,14.44
2023-03-24T10:45:38.892Z,14.38
2023-03-24T10:47:44.298Z,14.26
2023-03-24T10:49:55.356Z,14.26
2023-03-24T10:52:03.817Z,14.21
2023-03-24T10:54:16.569Z,14.26
2023-03-24T10:56:38.158Z,14.22
2023-03-24T10:58:43.335Z,14.30
2023-03-24T11:00:46.261Z,14.27
2023-03-24T11:02:58.656Z,14.23
2023-03-24T11:05:03.640Z,14.20
2023-03-24T11:07:08.700Z,13.89
2023-03-24T11:09:12.513Z,13.70
2023-03-24T11:11:29.393Z,13.56
2023-03-24T11:13:35.216Z,13.67
2023-03-24T11:15:38.129Z,13.67
2023-03-24T11:17:42.465Z,13.58
2023-03-24T11:19:57.505Z,13.54
2023-03-24T11:22:04.840Z,13.55
2023-03-24T11:24:12.534Z,13.60
2023-03-24T11:26:17.866Z,13.67
2023-03-24T11:28:26.874Z,13.74
2023-03-24T11:30:34.310Z,13.77
2023-03-24T11:32:37.256Z,13.76
2023-03-24T11:34:46.104Z,13.76
2023-03-24T11:36:53.335Z,13.87
2023-03-24T11:39:00.673Z,13.93
2023-03-24T11:41:04.974Z,13.93
2023-03-24T11:43:21.845Z,13.93
2023-03-24T11:45:29.445Z,14.04
2023-03-24T11:47:34.751Z,14.09
2023-03-24T11:49:43.165Z,14.19
2023-03-24T11:51:48.858Z,14.21
2023-03-24T11:53:58.778Z,14.25
2023-03-24T11:56:08.430Z,14.25
2023-03-24T11:58:24.921Z,14.18
2023-03-24T12:00:34.669Z,14.26
2023-03-24T12:02:53.264Z,14.36
2023-03-24T12:05:11.490Z,14.40
2023-03-24T12:07:37.199Z,14.53
2023-03-24T12:09:47.079Z,14.54
2023-03-24T12:12:12.003Z,14.65
2023-03-24T12:14:27.292Z,14.71
2023-03-24T12:16:42.174Z,14.61
2023-03-24T12:19:21.551Z,14.63
2023-03-24T12:21:45.629Z,14.73
2023-03-24T12:23:58.523Z,14.77
2023-03-24T12:26:14.299Z,14.73
2023-03-24T12:28:32.274Z,14.69
2023-03-24T12:30:42.636Z,14.91
2023-03-24T12:33:00.234Z,15.20
2023-03-24T12:35:39.645Z,15.37
2023-03-24T12:37:50.400Z,15.31
2023-03-24T12:40:05.034Z,15.36
2023-03-24T12:42:12.573Z,15.30
2023-03-24T12:44:38.162Z,15.34
2023-03-24T12:49:09.444Z,15.47
2023-03-24T12:51:22.565Z,15.64
2023-03-24T12:53:41.565Z,15.78
2023-03-24T12:55:49.421Z,15.85
2023-03-24T12:58:00.369Z,15.94
2023-03-24T13:00:11.653Z,16.05
2023-03-24T13:02:24.569Z,16.19
2023-03-24T13:04:32.048Z,16.12
2023-03-24T13:06:40.114Z,16.26
2023-03-24T13:09:04.922Z,16.39
2023-03-24T13:11:22.025Z,16.47
2023-03-24T13:13:39.389Z,16.70
2023-03-24T13:15:46.189Z,16.72
2023-03-24T13:17:54.391Z,16.61
2023-03-24T13:19:58.968Z,16.38
2023-03-24T13:22:02.332Z,16.21
2023-03-24T13:24:10.514Z,16.07
2023-03-24T13:26:26.726Z,16.21
2023-03-24T13:28:32.846Z,16.33
2023-03-24T13:30:41.548Z,16.30
2023-03-24T13:32:49.252Z,16.33
2023-03-24T13:34:57.843Z,16.40
2023-03-24T13:37:04.966Z,16.35
2023-03-24T13:39:14.220Z,16.44
2023-03-24T13:41:21.004Z,16.65
2023-03-24T13:43:26.014Z,16.66
2023-03-24T13:45:43.012Z,16.66
2023-03-24T13:47:51.003Z,16.89
2023-03-24T13:50:00.496Z,16.95
2023-03-24T13:52:06.290Z,16.95
2023-03-24T13:54:16.138Z,16.99
2023-03-24T13:56:25.889Z,17.23
2023-03-24T13:58:45.021Z,17.32
2023-03-24T14:01:18.689Z,17.24
2023-03-24T14:03:36.202Z,17.15
2023-03-24T14:05:55.902Z,17.12
2023-03-24T14:08:16.002Z,16.99
2023-03-24T14:10:43.760Z,17.00
2023-03-24T14:12:54.496Z,17.05
2023-03-24T14:15:18.925Z,17.16
2023-03-24T14:17:23.641Z,17.18
2023-03-24T14:19:39.042Z,17.27
2023-03-24T14:21:42.531Z,17.15
2023-03-24T14:23:48.094Z,17.07
2023-03-24T14:25:55.548Z,17.09
2023-03-24T14:28:16.261Z,17.14
2023-03-24T14:30:22.594Z,17.13
2023-03-24T14:32:27.595Z,17.21
2023-03-24T14:34:31.412Z,17.21
2023-03-24T14:36:39.256Z,17.22
2023-03-24T14:38:45.372Z,17.20
2023-03-24T14:40:50.874Z,17.00
2023-03-24T14:43:04.934Z,17.16
2023-03-24T14:45:39.292Z,17.25
2023-03-24T14:47:44.299Z,17.18
2023-03-24T14:49:49.773Z,17.03
2023-03-24T14:52:10.623Z,16.95
2023-03-24T14:54:16.786Z,16.99
2023-03-24T14:56:23.329Z,16.90
2023-03-24T14:58:35.877Z,16.82
2023-03-24T15:00:51.787Z,16.66
2023-03-24T15:03:20.512Z,16.44
2023-03-24T15:05:29.866Z,16.48
2023-03-24T15:07:32.834Z,16.58
2023-03-24T15:09:38.409Z,16.69
2023-03-24T15:11:43.452Z,16.71
2023-03-24T15:13:50.392Z,16.74
2023-03-24T15:15:53.509Z,16.74
2023-03-24T15:17:56.372Z,16.72
2023-03-24T15:20:00.648Z,16.74
2023-03-24T15:22:06.303Z,16.71
2023-03-24T15:24:28.807Z,16.77
2023-03-24T15:26:33.100Z,16.77
2023-03-24T15:28:36.629Z,16.91
2023-03-24T15:30:39.517Z,17.04
2023-03-24T15:32:46.243Z,17.06
2023-03-24T15:34:52.093Z,17.06
2023-03-24T15:36:58.334Z,17.01
2023-03-24T15:39:01.376Z,17.09
2023-03-24T15:41:06.840Z,17.13
2023-03-24T15:43:20.486Z,16.96
2023-03-24T15:45:28.345Z,16.91
2023-03-24T15:47:38.041Z,16.82
2023-03-24T15:49:48.633Z,16.74
2023-03-24T15:51:55.184Z,16.66
2023-03-24T15:54:00.135Z,16.79
2023-03-24T15:56:14.570Z,16.87
2023-03-24T15:58:26.721Z,17.04
2023-03-24T16:00:31.555Z,17.09
2023-03-24T16:02:38.860Z,17.11
2023-03-24T16:04:42.310Z,17.32
2023-03-24T16:06:51.584Z,17.35
2023-03-24T16:09:01.612Z,17.34
2023-03-24T16:11:07.859Z,17.43
2023-03-24T16:13:18.367Z,17.62
2023-03-24T16:15:21.281Z,17.55
2023-03-24T16:17:24.124Z,17.48
2023-03-24T16:19:28.536Z,17.28
2023-03-24T16:21:31.590Z,17.15
2023-03-24T16:23:34.463Z,17.06
2023-03-24T16:25:38.791Z,16.89
2023-03-24T16:27:41.635Z,16.92
2023-03-24T16:29:44.447Z,16.93
2023-03-24T16:31:49.681Z,16.86
2023-03-24T16:33:53.118Z,16.82
2023-03-24T16:35:55.957Z,16.83
2023-03-24T16:37:58.726Z,16.72
2023-03-24T16:40:03.534Z,16.87
2023-03-24T16:42:08.067Z,16.89
2023-03-24T16:44:11.673Z,16.80
2023-03-24T16:46:16.659Z,16.72
2023-03-24T16:48:19.571Z,16.69
2023-03-24T16:50:29.269Z,16.74
2023-03-24T16:52:32.784Z,16.77
2023-03-24T16:54:35.948Z,16.72
2023-03-24T16:56:39.137Z,16.57
2023-03-24T16:58:43.511Z,16.70
2023-03-24T17:00:49.074Z,16.60
2023-03-24T17:02:53.847Z,16.58
2023-03-24T17:04:57.084Z,16.57
2023-03-24T17:06:59.917Z,16.64
2023-03-24T17:09:05.869Z,16.55
2023-03-24T17:11:11.514Z,16.47
2023-03-24T17:13:19.578Z,16.40
2023-03-24T17:15:26.563Z,16.45
2023-03-24T17:17:29.543Z,16.30
2023-03-24T17:19:33.066Z,16.16
2023-03-24T17:21:39.484Z,16.08
2023-03-24T17:23:42.511Z,16.05
2023-03-24T17:25:45.514Z,16.01
2023-03-24T17:27:48.385Z,15.89
2023-03-24T17:29:51.519Z,15.82
2023-03-24T17:31:55.974Z,15.90
2023-03-24T17:34:00.336Z,15.82
2023-03-24T17:36:07.699Z,15.81
2023-03-24T17:38:14.180Z,15.65
2023-03-24T17:40:19.157Z,15.60
2023-03-24T17:42:22.088Z,15.58
2023-03-24T17:44:24.917Z,15.54
2023-03-24T17:46:27.890Z,15.51
2023-03-24T17:48:32.751Z,15.48
2023-03-24T17:50:35.703Z,15.41
2023-03-24T17:52:39.710Z,15.46
2023-03-24T17:54:44.078Z,15.52
2023-03-24T17:56:48.997Z,15.49
2023-03-24T17:58:54.707Z,15.46
2023-03-24T18:00:59.806Z,15.45
2023-03-24T18:03:11.173Z,15.36
2023-03-24T18:05:15.858Z,15.34
2023-03-24T18:07:18.825Z,15.32
2023-03-24T18:09:21.656Z,15.27
2023-03-24T18:11:25.138Z,15.22
2023-03-24T18:13:28.681Z,15.18
2023-03-24T18:15:31.796Z,15.16
2023-03-24T18:17:36.142Z,15.13
2023-03-24T18:19:40.247Z,15.11
2023-03-24T18:21:45.081Z,15.04
2023-03-24T18:23:48.447Z,15.08
2023-03-24T18:25:57.850Z,15.16
2023-03-24T18:28:00.684Z,15.21
2023-03-24T18:30:03.672Z,15.17
2023-03-24T18:32:06.765Z,15.14
2023-03-24T18:34:09.704Z,15.14
2023-03-24T18:36:13.252Z,15.13
2023-03-24T18:38:22.116Z,15.14
2023-03-24T18:40:24.965Z,15.11
2023-03-24T18:42:28.108Z,15.03
2023-03-24T18:44:31.093Z,14.96
2023-03-24T18:46:34.399Z,14.90
2023-03-24T18:48:37.247Z,14.70
2023-03-24T18:50:40.622Z,14.69
2023-03-24T18:52:43.495Z,14.66
2023-03-24T18:54:49.045Z,14.59
2023-03-24T18:56:52.254Z,14.49
2023-03-24T18:58:55.563Z,14.54
2023-03-24T19:01:02.869Z,14.51
2023-03-24T19:03:08.102Z,14.53
2023-03-24T19:05:12.780Z,14.61
2023-03-24T19:07:16.418Z,14.54
2023-03-24T19:09:21.000Z,14.45
2023-03-24T19:11:25.317Z,14.46
2023-03-24T19:13:28.172Z,14.43
2023-03-24T19:15:31.879Z,14.32
2023-03-24T19:17:34.729Z,14.36
2023-03-24T19:19:38.069Z,14.29
2023-03-24T19:21:41.731Z,14.34
2023-03-24T19:23:44.730Z,14.37
2023-03-24T19:25:47.839Z,14.32
2023-03-24T19:27:52.142Z,14.26
2023-03-24T19:29:54.945Z,14.30
2023-03-24T19:31:57.748Z,14.33
2023-03-24T19:34:00.790Z,14.24
2023-03-24T19:36:04.334Z,14.27
2023-03-24T19:38:07.250Z,14.13
2023-03-24T19:40:11.740Z,14.20
2023-03-24T19:42:14.645Z,14.18
2023-03-24T19:44:18.866Z,14.21
2023-03-24T19:46:21.872Z,14.10
2023-03-24T19:48:24.884Z,14.02
2023-03-24T19:50:27.802Z,13.96
2023-03-24T19:52:30.621Z,13.69
2023-03-24T19:54:33.464Z,13.62
2023-03-24T19:56:36.464Z,13.44
2023-03-24T19:58:39.326Z,13.20
2023-03-24T20:00:43.888Z,13.19
2023-03-24T20:02:46.702Z,13.09
2023-03-24T20:04:49.597Z,13.27
2023-03-24T20:06:52.466Z,13.26
2023-03-24T20:08:55.359Z,13.18
2023-03-24T20:10:58.239Z,13.13
2023-03-24T20:13:01.143Z,13.14
2023-03-24T20:15:04.288Z,13.17
2023-03-24T20:17:17.655Z,13.12
2023-03-24T20:19:20.542Z,13.09
2023-03-24T20:21:23.989Z,13.03
2023-03-24T20:23:26.914Z,13.02
2023-03-24T20:25:29.904Z,13.00
2023-03-24T20:27:32.872Z,12.95
2023-03-24T20:29:36.097Z,12.87
2023-03-24T20:31:40.960Z,12.84
2023-03-24T20:33:45.267Z,12.85
2023-03-24T20:35:48.402Z,12.77
2023-03-24T20:37:51.433Z,12.67
2023-03-24T20:39:54.242Z,12.67
2023-03-24T20:41:57.137Z,12.69
2023-03-24T20:44:00.091Z,12.73
2023-03-24T20:46:03.931Z,12.67
2023-03-24T20:48:06.936Z,12.75
2023-03-24T20:50:12.036Z,12.65
2023-03-24T20:52:20.507Z,12.79
2023-03-24T20:54:23.345Z,12.73
2023-03-24T20:56:26.198Z,12.57
2023-03-24T20:58:30.646Z,12.39
2023-03-24T21:00:33.497Z,12.27
2023-03-24T21:02:36.531Z,12.13
2023-03-24T21:04:39.474Z,12.20
2023-03-24T21:06:43.718Z,12.11
2023-03-24T21:08:47.082Z,12.02
2023-03-24T21:10:49.934Z,11.98
2023-03-24T21:12:54.695Z,11.84
2023-03-24T21:14:57.774Z,11.78
2023-03-24T21:17:00.574Z,11.83
2023-03-24T21:19:03.711Z,11.82
2023-03-24T21:21:07.292Z,11.95
2023-03-24T21:23:11.438Z,12.05
2023-03-24T21:25:15.360Z,11.98
2023-03-24T21:27:21.267Z,12.01
2023-03-24T21:29:24.499Z,12.04
2023-03-24T21:31:29.681Z,12.08
2023-03-24T21:33:32.828Z,12.05
2023-03-24T21:35:35.872Z,12.08
2023-03-24T21:37:40.956Z,12.06
2023-03-24T21:39:45.049Z,12.07
2023-03-24T21:41:47.811Z,12.05
2023-03-24T21:43:53.947Z,12.06
2023-03-24T21:45:57.152Z,12.03
2023-03-24T21:48:00.975Z,11.99
2023-03-24T21:50:04.314Z,12.04
2023-03-24T21:52:07.978Z,11.95
2023-03-24T21:54:14.629Z,11.86
2023-03-24T21:56:20.142Z,11.76
2023-03-24T21:58:24.043Z,11.78
2023-03-24T22:00:29.950Z,11.80
2023-03-24T22:02:34.784Z,11.80
2023-03-24T22:04:38.427Z,11.84
2023-03-24T22:06:41.213Z,11.84
2023-03-24T22:08:44.587Z,11.82
2023-03-24T22:10:47.432Z,11.81
2023-03-24T22:12:52.536Z,11.76
2023-03-24T22:14:55.297Z,11.76
2023-03-24T22:16:58.103Z,11.70
2023-03-24T22:19:01.503Z,11.70
2023-03-24T22:21:06.892Z,11.76
2023-03-24T22:23:10.103Z,11.73
2023-03-24T22:25:14.886Z,11.74
2023-03-24T22:27:17.761Z,11.71
2023-03-24T22:29:21.926Z,11.80
2023-03-24T22:31:24.924Z,11.67
2023-03-24T22:33:27.844Z,11.70
2023-03-24T22:35:30.649Z,11.72
2023-03-24T22:37:33.855Z,11.64
2023-03-24T22:39:36.651Z,11.56
2023-03-24T22:41:39.717Z,11.45
2023-03-24T22:43:42.884Z,11.52
2023-03-24T22:45:47.187Z,11.60
2023-03-24T22:47:50.281Z,11.74
2023-03-24T22:49:53.206Z,11.67
2023-03-24T22:51:56.201Z,11.65
2023-03-24T22:53:59.404Z,11.58
2023-03-24T22:56:02.286Z,11.62
2023-03-24T22:58:05.557Z,11.63
2023-03-24T23:00:09.773Z,11.59
2023-03-24T23:02:13.964Z,11.64
2023-03-24T23:04:17.028Z,11.64
2023-03-24T23:06:21.423Z,11.69
2023-03-24T23:08:24.674Z,11.74
2023-03-24T23:10:29.192Z,11.76
2023-03-24T23:12:32.015Z,11.74
2023-03-24T23:14:34.831Z,11.77
2023-03-24T23:16:38.877Z,11.80
2023-03-24T23:18:43.502Z,11.80
2023-03-24T23:20:46.785Z,11.81
2023-03-24T23:22:49.733Z,11.78
2023-03-24T23:25:00.498Z,11.62
2023-03-24T23:27:06.485Z,11.42
2023-03-24T23:29:09.816Z,11.41
2023-03-24T23:31:13.299Z,11.44
2023-03-24T23:33:16.234Z,11.40
2023-03-24T23:35:20.720Z,11.29
2023-03-24T23:37:23.478Z,11.27
2023-03-24T23:39:26.330Z,11.23
2023-03-24T23:41:29.233Z,11.12
2023-03-24T23:43:32.001Z,11.09
2023-03-24T23:45:34.881Z,11.12
2023-03-24T23:47:38.123Z,11.13
2023-03-24T23:49:42.404Z,11.20
2023-03-24T23:51:46.609Z,11.16
2023-03-24T23:53:49.416Z,11.08
2023-03-24T23:55:56.666Z,11.11
2023-03-24T23:57:59.585Z,11.13
